sensor_id;sensor_type;location;lat;lon;timestamp;temperature;humidity
65854;DHT22;52627;48.838;2.402;2022-07-04T00:01:39;20.50;49.69
65854;DHT22;52627;48.838;2.402;2022-07-04T00:04:06;20.49;49.78
65854;DHT22;52627;48.838;2.402;2022-07-04T00:06:34;20.46;49.91
65854;DHT22;52627;48.838;2.402;2022-07-04T00:09:02;20.41;50.00
65854;DHT22;52627;48.838;2.402;2022-07-04T00:11:29;20.34;50.04
65854;DHT22;52627;48.838;2.402;2022-07-04T00:13:57;20.29;50.05
65854;DHT22;52627;48.838;2.402;2022-07-04T00:16:25;20.24;50.00
65854;DHT22;52627;48.838;2.402;2022-07-04T00:18:53;20.20;50.02
65854;DHT22;52627;48.838;2.402;2022-07-04T00:21:21;20.14;50.01
65854;DHT22;52627;48.838;2.402;2022-07-04T00:23:48;20.09;50.05
65854;DHT22;52627;48.838;2.402;2022-07-04T00:26:16;20.04;50.08
65854;DHT22;52627;48.838;2.402;2022-07-04T00:28:44;19.98;50.11
65854;DHT22;52627;48.838;2.402;2022-07-04T00:31:11;19.95;50.19
65854;DHT22;52627;48.838;2.402;2022-07-04T00:33:39;19.91;50.29
65854;DHT22;52627;48.838;2.402;2022-07-04T00:36:07;19.85;50.36
65854;DHT22;52627;48.838;2.402;2022-07-04T00:38:34;19.82;50.40
65854;DHT22;52627;48.838;2.402;2022-07-04T00:41:02;19.79;50.49
65854;DHT22;52627;48.838;2.402;2022-07-04T00:43:30;19.75;50.51
65854;DHT22;52627;48.838;2.402;2022-07-04T00:46:16;19.70;50.59
65854;DHT22;52627;48.838;2.402;2022-07-04T00:48:43;19.66;50.67
65854;DHT22;52627;48.838;2.402;2022-07-04T00:51:11;19.63;50.71
65854;DHT22;52627;48.838;2.402;2022-07-04T00:53:38;19.59;50.75
65854;DHT22;52627;48.838;2.402;2022-07-04T00:56:06;19.55;50.82
65854;DHT22;52627;48.838;2.402;2022-07-04T00:58:33;19.53;50.88
65854;DHT22;52627;48.838;2.402;2022-07-04T01:01:01;19.49;50.97
65854;DHT22;52627;48.838;2.402;2022-07-04T01:03:29;19.43;51.06
65854;DHT22;52627;48.838;2.402;2022-07-04T01:05:57;19.39;51.15
65854;DHT22;52627;48.838;2.402;2022-07-04T01:08:27;19.34;51.22
65854;DHT22;52627;48.838;2.402;2022-07-04T01:10:56;19.31;51.29
65854;DHT22;52627;48.838;2.402;2022-07-04T01:13:24;19.28;51.33
65854;DHT22;52627;48.838;2.402;2022-07-04T01:15:51;19.27;51.42
65854;DHT22;52627;48.838;2.402;2022-07-04T01:18:19;19.25;51.49
65854;DHT22;52627;48.838;2.402;2022-07-04T01:20:46;19.24;51.60
65854;DHT22;52627;48.838;2.402;2022-07-04T01:23:14;19.21;51.65
65854;DHT22;52627;48.838;2.402;2022-07-04T01:25:43;19.18;51.71
65854;DHT22;52627;48.838;2.402;2022-07-04T01:28:11;19.17;51.81
65854;DHT22;52627;48.838;2.402;2022-07-04T01:30:38;19.15;51.88
65854;DHT22;52627;48.838;2.402;2022-07-04T01:33:06;19.14;51.90
65854;DHT22;52627;48.838;2.402;2022-07-04T01:35:33;19.11;51.92
65854;DHT22;52627;48.838;2.402;2022-07-04T01:38:01;19.11;51.98
65854;DHT22;52627;48.838;2.402;2022-07-04T01:40:28;19.09;52.03
65854;DHT22;52627;48.838;2.402;2022-07-04T01:42:56;19.06;52.10
65854;DHT22;52627;48.838;2.402;2022-07-04T01:45:25;19.04;52.14
65854;DHT22;52627;48.838;2.402;2022-07-04T01:47:53;19.02;52.20
65854;DHT22;52627;48.838;2.402;2022-07-04T01:50:21;19.02;52.20
65854;DHT22;52627;48.838;2.402;2022-07-04T01:52:49;19.01;52.20
65854;DHT22;52627;48.838;2.402;2022-07-04T01:55:16;18.99;52.25
65854;DHT22;52627;48.838;2.402;2022-07-04T01:57:44;18.99;52.31
65854;DHT22;52627;48.838;2.402;2022-07-04T02:00:11;18.97;52.31
65854;DHT22;52627;48.838;2.402;2022-07-04T02:02:58;18.96;52.40
65854;DHT22;52627;48.838;2.402;2022-07-04T02:05:25;18.93;52.40
65854;DHT22;52627;48.838;2.402;2022-07-04T02:07:53;18.91;52.49
65854;DHT22;52627;48.838;2.402;2022-07-04T02:10:20;18.89;52.52
65854;DHT22;52627;48.838;2.402;2022-07-04T02:12:48;18.88;52.58
65854;DHT22;52627;48.838;2.402;2022-07-04T02:15:32;18.84;52.67
65854;DHT22;52627;48.838;2.402;2022-07-04T02:18:07;18.83;52.68
65854;DHT22;52627;48.838;2.402;2022-07-04T02:20:36;18.81;52.74
65854;DHT22;52627;48.838;2.402;2022-07-04T02:23:05;18.79;52.75
65854;DHT22;52627;48.838;2.402;2022-07-04T02:25:33;18.77;52.79
65854;DHT22;52627;48.838;2.402;2022-07-04T02:28:00;18.75;52.80
65854;DHT22;52627;48.838;2.402;2022-07-04T02:30:28;18.74;52.86
65854;DHT22;52627;48.838;2.402;2022-07-04T02:32:55;18.73;52.93
65854;DHT22;52627;48.838;2.402;2022-07-04T02:35:23;18.71;52.98
65854;DHT22;52627;48.838;2.402;2022-07-04T02:37:51;18.71;52.98
65854;DHT22;52627;48.838;2.402;2022-07-04T02:40:18;18.69;53.00
65854;DHT22;52627;48.838;2.402;2022-07-04T02:42:46;18.65;53.01
65854;DHT22;52627;48.838;2.402;2022-07-04T02:45:13;18.63;53.11
65854;DHT22;52627;48.838;2.402;2022-07-04T02:47:41;18.62;53.16
65854;DHT22;52627;48.838;2.402;2022-07-04T02:50:09;18.61;53.19
65854;DHT22;52627;48.838;2.402;2022-07-04T02:52:36;18.61;53.26
65854;DHT22;52627;48.838;2.402;2022-07-04T02:55:04;18.60;53.35
65854;DHT22;52627;48.838;2.402;2022-07-04T02:57:32;18.59;53.38
65854;DHT22;52627;48.838;2.402;2022-07-04T02:59:59;18.58;53.37
65854;DHT22;52627;48.838;2.402;2022-07-04T03:02:27;18.57;53.40
65854;DHT22;52627;48.838;2.402;2022-07-04T03:04:54;18.56;53.44
65854;DHT22;52627;48.838;2.402;2022-07-04T03:07:22;18.52;53.49
65854;DHT22;52627;48.838;2.402;2022-07-04T03:09:49;18.51;53.53
65854;DHT22;52627;48.838;2.402;2022-07-04T03:12:17;18.48;53.59
65854;DHT22;52627;48.838;2.402;2022-07-04T03:14:44;18.48;53.63
65854;DHT22;52627;48.838;2.402;2022-07-04T03:17:12;18.46;53.65
65854;DHT22;52627;48.838;2.402;2022-07-04T03:19:40;18.44;53.76
65854;DHT22;52627;48.838;2.402;2022-07-04T03:22:08;18.42;53.81
65854;DHT22;52627;48.838;2.402;2022-07-04T03:24:35;18.40;53.82
65854;DHT22;52627;48.838;2.402;2022-07-04T03:27:03;18.37;53.91
65854;DHT22;52627;48.838;2.402;2022-07-04T03:29:31;18.34;53.98
65854;DHT22;52627;48.838;2.402;2022-07-04T03:31:58;18.34;53.99
65854;DHT22;52627;48.838;2.402;2022-07-04T03:34:26;18.33;54.06
65854;DHT22;52627;48.838;2.402;2022-07-04T03:36:54;18.32;54.10
65854;DHT22;52627;48.838;2.402;2022-07-04T03:39:21;18.31;54.17
65854;DHT22;52627;48.838;2.402;2022-07-04T03:41:49;18.31;54.21
65854;DHT22;52627;48.838;2.402;2022-07-04T03:44:17;18.30;54.27
65854;DHT22;52627;48.838;2.402;2022-07-04T03:46:44;18.30;54.30
65854;DHT22;52627;48.838;2.402;2022-07-04T03:49:12;18.30;54.38
65854;DHT22;52627;48.838;2.402;2022-07-04T03:51:39;18.27;54.41
65854;DHT22;52627;48.838;2.402;2022-07-04T03:54:07;18.26;54.46
65854;DHT22;52627;48.838;2.402;2022-07-04T03:56:35;18.25;54.50
65854;DHT22;52627;48.838;2.402;2022-07-04T03:59:02;18.24;54.51
65854;DHT22;52627;48.838;2.402;2022-07-04T04:01:30;18.24;54.50
65854;DHT22;52627;48.838;2.402;2022-07-04T04:03:58;18.23;54.55
65854;DHT22;52627;48.838;2.402;2022-07-04T04:06:44;18.22;54.63
65854;DHT22;52627;48.838;2.402;2022-07-04T04:09:11;18.21;54.70
65854;DHT22;52627;48.838;2.402;2022-07-04T04:11:43;18.18;54.72
65854;DHT22;52627;48.838;2.402;2022-07-04T04:14:11;18.15;54.81
65854;DHT22;52627;48.838;2.402;2022-07-04T04:16:39;18.13;54.90
65854;DHT22;52627;48.838;2.402;2022-07-04T04:19:11;18.11;55.01
65854;DHT22;52627;48.838;2.402;2022-07-04T04:21:39;18.11;55.07
65854;DHT22;52627;48.838;2.402;2022-07-04T04:24:06;18.11;55.11
65854;DHT22;52627;48.838;2.402;2022-07-04T04:26:35;18.10;55.19
65854;DHT22;52627;48.838;2.402;2022-07-04T04:29:02;18.11;55.21
65854;DHT22;52627;48.838;2.402;2022-07-04T04:31:30;18.11;55.29
65854;DHT22;52627;48.838;2.402;2022-07-04T04:33:58;18.13;55.36
65854;DHT22;52627;48.838;2.402;2022-07-04T04:36:26;18.13;55.47
65854;DHT22;52627;48.838;2.402;2022-07-04T04:38:53;18.14;55.50
65854;DHT22;52627;48.838;2.402;2022-07-04T04:41:21;18.15;55.57
65854;DHT22;52627;48.838;2.402;2022-07-04T04:43:49;18.16;55.68
65854;DHT22;52627;48.838;2.402;2022-07-04T04:46:19;18.18;55.69
65854;DHT22;52627;48.838;2.402;2022-07-04T04:48:47;18.20;55.72
65854;DHT22;52627;48.838;2.402;2022-07-04T04:51:15;18.22;55.74
65854;DHT22;52627;48.838;2.402;2022-07-04T04:53:43;18.24;55.82
65854;DHT22;52627;48.838;2.402;2022-07-04T04:56:10;18.28;55.91
65854;DHT22;52627;48.838;2.402;2022-07-04T04:58:38;18.33;55.94
65854;DHT22;52627;48.838;2.402;2022-07-04T05:01:06;18.37;56.03
65854;DHT22;52627;48.838;2.402;2022-07-04T05:03:54;18.40;56.10
65854;DHT22;52627;48.838;2.402;2022-07-04T05:06:22;18.43;56.10
65854;DHT22;52627;48.838;2.402;2022-07-04T05:08:50;18.43;56.15
65854;DHT22;52627;48.838;2.402;2022-07-04T05:11:17;18.45;56.12
65854;DHT22;52627;48.838;2.402;2022-07-04T05:13:45;18.51;56.17
65854;DHT22;52627;48.838;2.402;2022-07-04T05:16:12;18.55;56.10
65854;DHT22;52627;48.838;2.402;2022-07-04T05:18:40;18.58;56.10
65854;DHT22;52627;48.838;2.402;2022-07-04T05:21:08;18.60;56.14
65854;DHT22;52627;48.838;2.402;2022-07-04T05:23:35;18.63;56.11
65854;DHT22;52627;48.838;2.402;2022-07-04T05:26:03;18.67;56.11
65854;DHT22;52627;48.838;2.402;2022-07-04T05:28:30;18.72;56.09
65854;DHT22;52627;48.838;2.402;2022-07-04T05:30:58;18.77;56.16
65854;DHT22;52627;48.838;2.402;2022-07-04T05:33:25;18.83;56.10
65854;DHT22;52627;48.838;2.402;2022-07-04T05:35:53;18.86;56.07
65854;DHT22;52627;48.838;2.402;2022-07-04T05:38:20;18.90;56.00
65854;DHT22;52627;48.838;2.402;2022-07-04T05:40:48;18.94;56.00
65854;DHT22;52627;48.838;2.402;2022-07-04T05:43:16;18.95;55.91
65854;DHT22;52627;48.838;2.402;2022-07-04T05:45:43;18.98;55.89
65854;DHT22;52627;48.838;2.402;2022-07-04T05:48:11;19.03;55.91
65854;DHT22;52627;48.838;2.402;2022-07-04T05:50:38;19.09;55.82
65854;DHT22;52627;48.838;2.402;2022-07-04T05:53:06;19.11;55.74
65854;DHT22;52627;48.838;2.402;2022-07-04T05:55:33;19.15;55.70
65854;DHT22;52627;48.838;2.402;2022-07-04T05:58:02;19.18;55.70
65854;DHT22;52627;48.838;2.402;2022-07-04T06:00:29;19.23;55.62
65854;DHT22;52627;48.838;2.402;2022-07-04T06:02:57;19.28;55.59
65854;DHT22;52627;48.838;2.402;2022-07-04T06:05:25;19.35;55.54
65854;DHT22;52627;48.838;2.402;2022-07-04T06:07:52;19.42;55.48
65854;DHT22;52627;48.838;2.402;2022-07-04T06:10:20;19.50;55.40
65854;DHT22;52627;48.838;2.402;2022-07-04T06:12:48;19.59;55.29
65854;DHT22;52627;48.838;2.402;2022-07-04T06:15:15;19.65;55.18
65854;DHT22;52627;48.838;2.402;2022-07-04T06:17:43;19.73;55.11
65854;DHT22;52627;48.838;2.402;2022-07-04T06:20:11;19.89;55.06
65854;DHT22;52627;48.838;2.402;2022-07-04T06:22:45;20.10;54.84
65854;DHT22;52627;48.838;2.402;2022-07-04T06:25:15;20.31;54.65
65854;DHT22;52627;48.838;2.402;2022-07-04T06:27:46;20.52;54.45
65854;DHT22;52627;48.838;2.402;2022-07-04T06:30:16;20.77;54.26
65854;DHT22;52627;48.838;2.402;2022-07-04T06:32:44;21.10;53.95
65854;DHT22;52627;48.838;2.402;2022-07-04T06:35:17;21.42;53.67
65854;DHT22;52627;48.838;2.402;2022-07-04T06:38:26;21.86;53.33
65854;DHT22;52627;48.838;2.402;2022-07-04T06:40:56;22.23;52.95
65854;DHT22;52627;48.838;2.402;2022-07-04T06:43:25;22.55;52.50
65854;DHT22;52627;48.838;2.402;2022-07-04T06:45:53;22.87;52.16
65854;DHT22;52627;48.838;2.402;2022-07-04T06:48:21;23.23;51.69
65854;DHT22;52627;48.838;2.402;2022-07-04T06:50:48;23.55;51.01
65854;DHT22;52627;48.838;2.402;2022-07-04T06:53:16;23.84;50.49
65854;DHT22;52627;48.838;2.402;2022-07-04T06:55:44;24.18;49.93
65854;DHT22;52627;48.838;2.402;2022-07-04T06:58:11;24.55;49.39
65854;DHT22;52627;48.838;2.402;2022-07-04T07:00:45;25.01;48.81
65854;DHT22;52627;48.838;2.402;2022-07-04T07:03:12;25.57;48.05
65854;DHT22;52627;48.838;2.402;2022-07-04T07:05:40;26.11;47.26
65854;DHT22;52627;48.838;2.402;2022-07-04T07:08:25;26.80;46.40
65854;DHT22;52627;48.838;2.402;2022-07-04T07:10:55;27.44;45.73
65854;DHT22;52627;48.838;2.402;2022-07-04T07:13:23;28.07;44.90
65854;DHT22;52627;48.838;2.402;2022-07-04T07:15:51;28.63;44.01
65854;DHT22;52627;48.838;2.402;2022-07-04T07:18:19;29.13;43.22
65854;DHT22;52627;48.838;2.402;2022-07-04T07:20:46;29.58;42.31
65854;DHT22;52627;48.838;2.402;2022-07-04T07:23:14;29.93;41.29
65854;DHT22;52627;48.838;2.402;2022-07-04T07:25:42;30.22;40.60
65854;DHT22;52627;48.838;2.402;2022-07-04T07:28:10;30.67;39.82
65854;DHT22;52627;48.838;2.402;2022-07-04T07:30:37;31.14;38.97
65854;DHT22;52627;48.838;2.402;2022-07-04T07:33:05;31.56;38.06
65854;DHT22;52627;48.838;2.402;2022-07-04T07:35:32;31.73;37.30
65854;DHT22;52627;48.838;2.402;2022-07-04T07:38:00;31.99;36.57
65854;DHT22;52627;48.838;2.402;2022-07-04T07:40:28;32.22;35.83
65854;DHT22;52627;48.838;2.402;2022-07-04T07:42:55;32.49;35.22
65854;DHT22;52627;48.838;2.402;2022-07-04T07:45:24;32.77;34.54
65854;DHT22;52627;48.838;2.402;2022-07-04T07:47:51;33.07;34.00
65854;DHT22;52627;48.838;2.402;2022-07-04T07:50:19;33.40;33.42
65854;DHT22;52627;48.838;2.402;2022-07-04T07:52:46;33.62;32.58
65854;DHT22;52627;48.838;2.402;2022-07-04T07:55:14;33.55;32.05
65854;DHT22;52627;48.838;2.402;2022-07-04T07:57:42;33.57;31.48
65854;DHT22;52627;48.838;2.402;2022-07-04T08:00:15;33.65;31.14
65854;DHT22;52627;48.838;2.402;2022-07-04T08:03:04;33.86;30.74
65854;DHT22;52627;48.838;2.402;2022-07-04T08:05:50;34.09;30.34
65854;DHT22;52627;48.838;2.402;2022-07-04T08:08:18;34.30;30.06
65854;DHT22;52627;48.838;2.402;2022-07-04T08:10:46;34.53;29.77
65854;DHT22;52627;48.838;2.402;2022-07-04T08:13:13;34.72;29.36
65854;DHT22;52627;48.838;2.402;2022-07-04T08:15:41;34.83;28.92
65854;DHT22;52627;48.838;2.402;2022-07-04T08:18:08;34.90;28.59
65854;DHT22;52627;48.838;2.402;2022-07-04T08:20:36;34.77;28.18
65854;DHT22;52627;48.838;2.402;2022-07-04T08:23:24;34.80;27.94
65854;DHT22;52627;48.838;2.402;2022-07-04T08:25:52;35.01;27.74
65854;DHT22;52627;48.838;2.402;2022-07-04T08:28:19;35.22;27.44
65854;DHT22;52627;48.838;2.402;2022-07-04T08:30:47;35.01;27.12
65854;DHT22;52627;48.838;2.402;2022-07-04T08:33:14;34.33;27.00
65854;DHT22;52627;48.838;2.402;2022-07-04T08:35:42;34.16;26.97
65854;DHT22;52627;48.838;2.402;2022-07-04T08:38:10;34.19;26.90
65854;DHT22;52627;48.838;2.402;2022-07-04T08:40:38;34.20;26.82
65854;DHT22;52627;48.838;2.402;2022-07-04T08:43:08;34.35;26.78
65854;DHT22;52627;48.838;2.402;2022-07-04T08:45:41;34.55;26.72
65854;DHT22;52627;48.838;2.402;2022-07-04T08:48:28;34.64;26.51
65854;DHT22;52627;48.838;2.402;2022-07-04T08:51:17;34.79;26.47
65854;DHT22;52627;48.838;2.402;2022-07-04T08:54:05;35.01;26.37
65854;DHT22;52627;48.838;2.402;2022-07-04T08:56:55;35.06;26.09
65854;DHT22;52627;48.838;2.402;2022-07-04T08:59:41;35.04;25.96
65854;DHT22;52627;48.838;2.402;2022-07-04T09:02:13;35.13;25.85
65854;DHT22;52627;48.838;2.402;2022-07-04T09:04:44;35.27;25.78
65854;DHT22;52627;48.838;2.402;2022-07-04T09:07:14;35.42;25.67
65854;DHT22;52627;48.838;2.402;2022-07-04T09:09:41;35.60;25.60
65854;DHT22;52627;48.838;2.402;2022-07-04T09:12:17;35.85;25.50
65854;DHT22;52627;48.838;2.402;2022-07-04T09:14:45;36.01;25.29
65854;DHT22;52627;48.838;2.402;2022-07-04T09:17:12;36.01;25.06
65854;DHT22;52627;48.838;2.402;2022-07-04T09:19:40;36.05;24.89
65854;DHT22;52627;48.838;2.402;2022-07-04T09:22:09;36.08;24.69
65854;DHT22;52627;48.838;2.402;2022-07-04T09:24:45;36.06;24.69
65854;DHT22;52627;48.838;2.402;2022-07-04T09:27:58;36.21;24.48
65854;DHT22;52627;48.838;2.402;2022-07-04T09:30:12;36.13;24.29
65854;DHT22;52627;48.838;2.402;2022-07-04T09:32:49;36.11;24.10
65854;DHT22;52627;48.838;2.402;2022-07-04T09:35:20;36.14;24.01
65854;DHT22;52627;48.838;2.402;2022-07-04T09:37:52;36.19;23.89
65854;DHT22;52627;48.838;2.402;2022-07-04T09:43:01;35.97;23.77
65854;DHT22;52627;48.838;2.402;2022-07-04T09:45:52;36.04;23.66
65854;DHT22;52627;48.838;2.402;2022-07-04T09:48:22;36.16;23.60
65854;DHT22;52627;48.838;2.402;2022-07-04T09:50:51;36.15;23.52
65854;DHT22;52627;48.838;2.402;2022-07-04T09:53:18;36.17;23.48
65854;DHT22;52627;48.838;2.402;2022-07-04T09:55:54;35.97;23.35
65854;DHT22;52627;48.838;2.402;2022-07-04T09:58:22;35.76;23.41
65854;DHT22;52627;48.838;2.402;2022-07-04T10:00:49;35.67;23.57
65854;DHT22;52627;48.838;2.402;2022-07-04T10:03:28;35.63;23.62
65854;DHT22;52627;48.838;2.402;2022-07-04T10:06:13;35.74;23.65
65854;DHT22;52627;48.838;2.402;2022-07-04T10:08:43;35.87;23.52
65854;DHT22;52627;48.838;2.402;2022-07-04T10:11:11;35.89;23.43
65854;DHT22;52627;48.838;2.402;2022-07-04T10:13:45;35.89;23.43
65854;DHT22;52627;48.838;2.402;2022-07-04T10:16:15;35.75;23.33
65854;DHT22;52627;48.838;2.402;2022-07-04T10:18:44;35.56;23.37
65854;DHT22;52627;48.838;2.402;2022-07-04T10:21:11;35.53;23.37
65854;DHT22;52627;48.838;2.402;2022-07-04T10:23:39;35.44;23.20
65854;DHT22;52627;48.838;2.402;2022-07-04T10:26:08;35.33;23.18
65854;DHT22;52627;48.838;2.402;2022-07-04T10:28:37;35.32;23.30
65854;DHT22;52627;48.838;2.402;2022-07-04T10:31:05;35.29;23.29
65854;DHT22;52627;48.838;2.402;2022-07-04T10:33:33;35.20;23.32
65854;DHT22;52627;48.838;2.402;2022-07-04T10:36:02;35.21;23.52
65854;DHT22;52627;48.838;2.402;2022-07-04T10:38:50;35.34;23.54
65854;DHT22;52627;48.838;2.402;2022-07-04T10:41:21;35.38;23.42
65854;DHT22;52627;48.838;2.402;2022-07-04T10:43:54;35.25;23.41
65854;DHT22;52627;48.838;2.402;2022-07-04T10:46:44;34.93;23.41
65854;DHT22;52627;48.838;2.402;2022-07-04T10:51:46;34.94;23.40
65854;DHT22;52627;48.838;2.402;2022-07-04T11:00:05;34.72;23.08
65854;DHT22;52627;48.838;2.402;2022-07-04T11:02:36;34.50;23.10
65854;DHT22;52627;48.838;2.402;2022-07-04T11:05:07;34.27;23.05
65854;DHT22;52627;48.838;2.402;2022-07-04T11:18:02;34.29;23.26
65854;DHT22;52627;48.838;2.402;2022-07-04T11:20:33;34.28;23.18
65854;DHT22;52627;48.838;2.402;2022-07-04T11:23:06;34.27;23.26
65854;DHT22;52627;48.838;2.402;2022-07-04T11:25:36;34.32;23.23
65854;DHT22;52627;48.838;2.402;2022-07-04T11:28:23;34.15;23.01
65854;DHT22;52627;48.838;2.402;2022-07-04T11:31:11;33.83;22.97
65854;DHT22;52627;48.838;2.402;2022-07-04T11:33:39;33.62;23.20
65854;DHT22;52627;48.838;2.402;2022-07-04T11:38:52;33.52;23.24
65854;DHT22;52627;48.838;2.402;2022-07-04T11:44:26;33.33;23.45
65854;DHT22;52627;48.838;2.402;2022-07-04T11:47:22;33.23;23.54
65854;DHT22;52627;48.838;2.402;2022-07-04T11:49:53;33.28;23.74
65854;DHT22;52627;48.838;2.402;2022-07-04T11:52:24;33.25;23.62
65854;DHT22;52627;48.838;2.402;2022-07-04T11:55:51;32.97;23.59
65854;DHT22;52627;48.838;2.402;2022-07-04T11:58:23;32.93;23.68
65854;DHT22;52627;48.838;2.402;2022-07-04T12:00:51;32.95;23.69
65854;DHT22;52627;48.838;2.402;2022-07-04T12:03:19;33.04;23.76
65854;DHT22;52627;48.838;2.402;2022-07-04T12:05:59;33.16;24.01
65854;DHT22;52627;48.838;2.402;2022-07-04T12:08:28;33.26;24.17
65854;DHT22;52627;48.838;2.402;2022-07-04T12:10:56;33.38;24.14
65854;DHT22;52627;48.838;2.402;2022-07-04T12:13:23;33.41;24.07
65854;DHT22;52627;48.838;2.402;2022-07-04T12:15:51;33.42;24.10
65854;DHT22;52627;48.838;2.402;2022-07-04T12:20:52;33.30;24.00
65854;DHT22;52627;48.838;2.402;2022-07-04T12:23:21;33.30;23.94
65854;DHT22;52627;48.838;2.402;2022-07-04T12:25:52;33.33;23.99
65854;DHT22;52627;48.838;2.402;2022-07-04T12:28:20;33.37;23.95
65854;DHT22;52627;48.838;2.402;2022-07-04T12:30:54;33.30;23.97
65854;DHT22;52627;48.838;2.402;2022-07-04T12:33:25;33.23;24.09
65854;DHT22;52627;48.838;2.402;2022-07-04T12:35:58;33.26;24.10
65854;DHT22;52627;48.838;2.402;2022-07-04T12:38:34;33.19;24.11
65854;DHT22;52627;48.838;2.402;2022-07-04T12:41:08;33.13;24.16
65854;DHT22;52627;48.838;2.402;2022-07-04T12:49:16;33.17;24.37
65854;DHT22;52627;48.838;2.402;2022-07-04T12:51:44;33.27;24.29
65854;DHT22;52627;48.838;2.402;2022-07-04T12:54:12;33.31;24.30
65854;DHT22;52627;48.838;2.402;2022-07-04T12:56:44;33.24;24.21
65854;DHT22;52627;48.838;2.402;2022-07-04T12:59:14;33.15;24.30
65854;DHT22;52627;48.838;2.402;2022-07-04T13:01:45;33.26;24.49
65854;DHT22;52627;48.838;2.402;2022-07-04T13:04:13;33.37;24.28
65854;DHT22;52627;48.838;2.402;2022-07-04T13:06:43;33.40;24.23
65854;DHT22;52627;48.838;2.402;2022-07-04T13:09:10;33.46;24.18
65854;DHT22;52627;48.838;2.402;2022-07-04T13:11:38;33.36;23.96
65854;DHT22;52627;48.838;2.402;2022-07-04T13:14:24;33.39;24.00
65854;DHT22;52627;48.838;2.402;2022-07-04T13:16:52;33.49;23.99
65854;DHT22;52627;48.838;2.402;2022-07-04T13:19:20;33.68;24.04
65854;DHT22;52627;48.838;2.402;2022-07-04T13:21:47;33.83;23.89
65854;DHT22;52627;48.838;2.402;2022-07-04T13:24:15;33.95;23.85
65854;DHT22;52627;48.838;2.402;2022-07-04T13:26:43;34.09;23.79
65854;DHT22;52627;48.838;2.402;2022-07-04T13:29:10;34.23;23.67
65854;DHT22;52627;48.838;2.402;2022-07-04T13:31:39;34.24;23.54
65854;DHT22;52627;48.838;2.402;2022-07-04T13:34:07;34.33;23.50
65854;DHT22;52627;48.838;2.402;2022-07-04T13:36:34;34.45;23.43
65854;DHT22;52627;48.838;2.402;2022-07-04T13:39:02;34.56;23.32
65854;DHT22;52627;48.838;2.402;2022-07-04T13:41:33;34.68;23.31
65854;DHT22;52627;48.838;2.402;2022-07-04T13:44:02;34.80;23.30
65854;DHT22;52627;48.838;2.402;2022-07-04T13:46:32;34.92;23.25
65854;DHT22;52627;48.838;2.402;2022-07-04T13:49:06;34.88;23.04
65854;DHT22;52627;48.838;2.402;2022-07-04T13:51:40;34.92;22.97
65854;DHT22;52627;48.838;2.402;2022-07-04T13:54:09;34.98;22.81
65854;DHT22;52627;48.838;2.402;2022-07-04T13:56:37;34.99;22.61
65854;DHT22;52627;48.838;2.402;2022-07-04T13:59:05;34.96;22.53
65854;DHT22;52627;48.838;2.402;2022-07-04T14:01:32;34.94;22.41
65854;DHT22;52627;48.838;2.402;2022-07-04T14:04:00;34.77;22.32
65854;DHT22;52627;48.838;2.402;2022-07-04T14:06:28;34.51;22.26
65854;DHT22;52627;48.838;2.402;2022-07-04T14:08:55;34.16;22.07
65854;DHT22;52627;48.838;2.402;2022-07-04T14:11:23;33.78;22.08
65854;DHT22;52627;48.838;2.402;2022-07-04T14:13:51;33.40;22.27
65854;DHT22;52627;48.838;2.402;2022-07-04T14:16:19;33.06;22.46
65854;DHT22;52627;48.838;2.402;2022-07-04T14:18:46;32.81;22.72
65854;DHT22;52627;48.838;2.402;2022-07-04T14:21:14;32.52;22.93
65854;DHT22;52627;48.838;2.402;2022-07-04T14:23:42;32.09;23.19
65854;DHT22;52627;48.838;2.402;2022-07-04T14:26:10;31.76;23.43
65854;DHT22;52627;48.838;2.402;2022-07-04T14:28:43;31.58;23.74
65854;DHT22;52627;48.838;2.402;2022-07-04T14:31:11;31.48;24.02
65854;DHT22;52627;48.838;2.402;2022-07-04T14:33:40;31.44;24.31
65854;DHT22;52627;48.838;2.402;2022-07-04T14:36:07;31.38;24.51
65854;DHT22;52627;48.838;2.402;2022-07-04T14:38:37;31.28;24.66
65854;DHT22;52627;48.838;2.402;2022-07-04T14:41:05;31.18;24.77
65854;DHT22;52627;48.838;2.402;2022-07-04T14:43:39;31.03;24.89
65854;DHT22;52627;48.838;2.402;2022-07-04T14:46:09;30.89;25.04
65854;DHT22;52627;48.838;2.402;2022-07-04T14:48:37;30.79;25.29
65854;DHT22;52627;48.838;2.402;2022-07-04T14:51:05;30.72;25.44
65854;DHT22;52627;48.838;2.402;2022-07-04T14:53:33;30.67;25.57
65854;DHT22;52627;48.838;2.402;2022-07-04T14:56:02;30.56;25.60
65854;DHT22;52627;48.838;2.402;2022-07-04T14:58:30;30.41;25.72
65854;DHT22;52627;48.838;2.402;2022-07-04T15:00:57;30.30;25.86
65854;DHT22;52627;48.838;2.402;2022-07-04T15:03:25;30.25;25.99
65854;DHT22;52627;48.838;2.402;2022-07-04T15:05:53;30.23;26.10
65854;DHT22;52627;48.838;2.402;2022-07-04T15:08:20;30.18;26.12
65854;DHT22;52627;48.838;2.402;2022-07-04T15:10:48;30.15;26.13
65854;DHT22;52627;48.838;2.402;2022-07-04T15:13:35;30.16;26.25
65854;DHT22;52627;48.838;2.402;2022-07-04T15:16:03;30.21;26.32
65854;DHT22;52627;48.838;2.402;2022-07-04T15:18:48;30.26;26.24
65854;DHT22;52627;48.838;2.402;2022-07-04T15:21:17;30.26;26.25
65854;DHT22;52627;48.838;2.402;2022-07-04T15:24:03;30.24;26.33
65854;DHT22;52627;48.838;2.402;2022-07-04T15:26:47;30.16;26.32
65854;DHT22;52627;48.838;2.402;2022-07-04T15:29:19;30.03;26.31
65854;DHT22;52627;48.838;2.402;2022-07-04T15:31:49;29.97;26.38
65854;DHT22;52627;48.838;2.402;2022-07-04T15:34:17;29.96;26.51
65854;DHT22;52627;48.838;2.402;2022-07-04T15:36:45;29.97;26.63
65854;DHT22;52627;48.838;2.402;2022-07-04T15:39:14;30.00;26.69
65854;DHT22;52627;48.838;2.402;2022-07-04T15:41:43;30.01;26.73
65854;DHT22;52627;48.838;2.402;2022-07-04T15:44:13;30.02;26.78
65854;DHT22;52627;48.838;2.402;2022-07-04T15:46:40;30.01;26.82
65854;DHT22;52627;48.838;2.402;2022-07-04T15:49:26;30.00;26.94
65854;DHT22;52627;48.838;2.402;2022-07-04T15:51:54;29.94;26.95
65854;DHT22;52627;48.838;2.402;2022-07-04T15:54:22;29.87;26.99
65854;DHT22;52627;48.838;2.402;2022-07-04T15:56:49;29.86;26.98
65854;DHT22;52627;48.838;2.402;2022-07-04T15:59:17;29.84;27.02
65854;DHT22;52627;48.838;2.402;2022-07-04T16:01:45;29.84;27.02
65854;DHT22;52627;48.838;2.402;2022-07-04T16:04:13;29.85;27.01
65854;DHT22;52627;48.838;2.402;2022-07-04T16:06:40;29.80;27.15
65854;DHT22;52627;48.838;2.402;2022-07-04T16:09:08;29.72;27.39
65854;DHT22;52627;48.838;2.402;2022-07-04T16:11:36;29.70;27.44
65854;DHT22;52627;48.838;2.402;2022-07-04T16:14:03;29.72;27.48
65854;DHT22;52627;48.838;2.402;2022-07-04T16:16:31;29.76;27.69
65854;DHT22;52627;48.838;2.402;2022-07-04T16:19:00;29.78;27.69
65854;DHT22;52627;48.838;2.402;2022-07-04T16:21:28;29.77;27.79
65854;DHT22;52627;48.838;2.402;2022-07-04T16:23:55;29.82;27.78